Glensted, Missouri
Current Conditions -  °F | °C
As of 6:53 PM on Saturday 25 Oct 2014 (Local Time) from KDMO Reporting Station
Haze Haze  
Wind Chill: 73°   Ceiling: Unl
Heat Index: 73°   Visibility: 4mi
Dew Point: 59°   Wind: 0mph
Humidity: 61%   Direction: NA
Pressure: 30.03"   Gusts: NA
Location:  38.4499°N, 92.8168°W
Report Text: KDMO 252353Z AUTO 00000KT 4SM HZ CLR 23/15 A3003 RMK AO2 SLP165 T02280150 10272 20222 55002
Loading
Personal Weather Stations






























Interactive Weather Map
Tropical Storm Tracking
New forecast layout! Learn more

10-Day Weather Forecast

Advertisements
Track Severe Weather on mobile